Time;durP1;ratioP1;P1;durP2;ratioP2;P2;SDS_P1;SDS_P2;PMS_P1;PMS_P2;Temp;Humidity;BMP_temperature;BMP_pressure;BME280_temperature;BME280_humidity;BME280_pressure;Samples;Min_cycle;Max_cycle;Signal;HPM_P1;HPM_P2
2023/10/06 00:02:28;;;;;;;12.00;5.00;;;;;;;13.97;100.00;102413.59;5058754;28;20052;-71
2023/10/06 00:04:55;;;;;;;9.65;4.72;;;;;;;13.92;100.00;102414.97;5056884;28;20052;-72
2023/10/06 00:07:24;;;;;;;10.80;4.88;;;;;;;13.94;100.00;102413.88;5049510;28;20098;-72
2023/10/06 00:09:53;;;;;;;10.13;5.15;;;;;;;13.99;100.00;102408.19;5049268;28;20424;-71
2023/10/06 00:12:20;;;;;;;10.20;4.75;;;;;;;13.95;100.00;102412.91;5059904;28;20498;-71
2023/10/06 00:14:48;;;;;;;10.02;4.80;;;;;;;13.89;100.00;102417.84;5064941;28;20048;-71
2023/10/06 00:17:19;;;;;;;10.05;4.70;;;;;;;13.93;100.00;102406.09;5057748;28;20688;-72
2023/10/06 00:19:51;;;;;;;16.05;5.03;;;;;;;13.90;100.00;102407.19;5047619;28;20452;-71
2023/10/06 00:22:18;;;;;;;11.20;4.68;;;;;;;13.81;100.00;102394.75;5049157;28;20113;-71
2023/10/06 00:24:47;;;;;;;11.20;5.43;;;;;;;13.80;100.00;102393.09;5059872;28;20456;-71
2023/10/06 00:27:14;;;;;;;11.52;4.63;;;;;;;-145.50;100.00;65435.88;5044136;28;20041;-72
2023/10/06 00:29:49;;;;;;;10.90;4.72;;;;;;;-145.50;100.00;65435.88;5056552;28;20069;-71
2023/10/06 00:32:27;;;;;;;10.57;4.85;;;;;;;-145.50;100.00;65435.88;5059046;28;20135;-71
2023/10/06 00:34:55;;;;;;;12.80;5.07;;;;;;;-145.50;100.00;65435.88;5050275;28;20060;-71
2023/10/06 00:37:22;;;;;;;11.88;4.78;;;;;;;-145.50;100.00;65435.88;5060143;28;20048;-71
2023/10/06 00:39:50;;;;;;;15.68;5.30;;;;;;;-145.50;100.00;65435.88;5059233;28;20048;-71
2023/10/06 00:42:17;;;;;;;10.90;5.45;;;;;;;-145.50;100.00;65435.88;5053708;28;20693;-71
2023/10/06 00:44:47;;;;;;;10.45;5.50;;;;;;;-145.50;100.00;65435.88;5054104;28;20140;-71
2023/10/06 00:47:14;;;;;;;14.25;5.10;;;;;;;-145.50;100.00;65435.88;5063032;28;20080;-72
2023/10/06 00:49:43;;;;;;;11.88;5.30;;;;;;;-145.50;100.00;65435.88;5060123;28;20106;-71
2023/10/06 00:52:12;;;;;;;11.57;5.22;;;;;;;-145.50;100.00;65435.88;5053609;28;20076;-71
2023/10/06 00:54:43;;;;;;;12.93;5.80;;;;;;;-145.50;100.00;65435.88;5047607;28;20573;-71
2023/10/06 00:57:12;;;;;;;13.52;5.38;;;;;;;-145.50;100.00;65435.88;5045436;28;20476;-71
2023/10/06 00:59:41;;;;;;;;;;;;;;;-145.50;100.00;65435.88;5065766;28;20498;-71
2023/10/06 01:02:11;;;;;;;12.90;5.32;;;;;;;-145.50;100.00;65435.88;5048549;28;20387;-71
2023/10/06 01:04:45;;;;;;;9.40;4.60;;;;;;;-145.50;100.00;65435.88;5051427;28;20107;-71
2023/10/06 01:07:16;;;;;;;15.18;5.05;;;;;;;-145.50;100.00;65435.88;5055405;28;20143;-71
2023/10/06 01:09:57;;;;;;;12.25;5.30;;;;;;;-145.50;100.00;65435.88;5038020;28;20486;-72
2023/10/06 01:12:25;;;;;;;13.65;5.82;;;;;;;-145.50;100.00;65435.88;5047479;28;20418;-72
2023/10/06 01:15:05;;;;;;;10.85;5.40;;;;;;;-145.50;100.00;65435.88;5056462;28;20048;-72
2023/10/06 01:17:33;;;;;;;13.43;5.43;;;;;;;-145.50;100.00;65435.88;5054949;28;20052;-71
2023/10/06 01:20:00;;;;;;;11.13;4.85;;;;;;;-145.50;100.00;65435.88;5054967;28;20048;-71
2023/10/06 01:22:30;;;;;;;13.73;5.97;;;;;;;-145.50;100.00;65435.88;5052886;28;20080;-71
2023/10/06 01:25:03;;;;;;;13.23;5.43;;;;;;;-145.50;100.00;65435.88;5053243;28;20052;-71
2023/10/06 01:27:30;;;;;;;9.48;5.53;;;;;;;-145.50;100.00;65435.88;5058351;28;20096;-71
2023/10/06 01:32:44;;;;;;;15.60;6.30;;;;;;;-145.50;100.00;65435.88;5042156;28;20044;-72
2023/10/06 01:35:12;;;;;;;14.35;5.85;;;;;;;-145.50;100.00;65435.88;5058117;28;20052;-71
2023/10/06 01:37:43;;;;;;;12.88;6.50;;;;;;;-145.50;100.00;65435.88;5042079;28;20048;-71
2023/10/06 01:40:44;;;;;;;18.73;6.63;;;;;;;-145.50;100.00;65435.88;5051037;28;20846;-72
2023/10/06 01:43:09;;;;;;;10.82;5.82;;;;;;;-145.50;100.00;65435.88;5050767;28;20048;-71
2023/10/06 01:45:43;;;;;;;12.80;5.93;;;;;;;-145.50;100.00;65435.88;5052737;28;20045;-71
2023/10/06 01:50:41;;;;;;;14.50;5.93;;;;;;;-145.50;100.00;65435.88;5048364;28;20060;-71
2023/10/06 01:53:16;;;;;;;12.57;5.88;;;;;;;-145.50;100.00;65435.88;5057227;28;20463;-71
2023/10/06 01:55:43;;;;;;;11.90;6.00;;;;;;;-145.50;100.00;65435.88;5066989;28;20048;-72
2023/10/06 01:58:11;;;;;;;10.85;5.80;;;;;;;-145.50;100.00;65435.88;5085332;28;20041;-72
2023/10/06 02:00:38;;;;;;;12.40;6.05;;;;;;;-145.50;100.00;65435.88;5064605;28;20100;-72
2023/10/06 02:03:10;;;;;;;13.65;5.72;;;;;;;-145.50;100.00;65435.88;5064825;28;20103;-71
2023/10/06 02:05:40;;;;;;;12.77;5.88;;;;;;;-145.50;100.00;65435.88;5052206;28;20127;-71
2023/10/06 02:08:09;;;;;;;13.30;5.93;;;;;;;-145.50;100.00;65435.88;5047983;28;20553;-71
2023/10/06 02:10:36;;;;;;;12.75;5.65;;;;;;;-145.50;100.00;65435.88;5055962;28;20107;-72
2023/10/06 02:13:05;;;;;;;11.82;5.93;;;;;;;-145.50;100.00;65435.88;5037618;28;20505;-72
2023/10/06 02:15:32;;;;;;;12.43;5.78;;;;;;;-145.50;100.00;65435.88;5048978;28;20051;-71
2023/10/06 02:17:59;;;;;;;12.85;5.45;;;;;;;-145.50;100.00;65435.88;5057606;28;20114;-72
2023/10/06 02:22:53;;;;;;;16.40;6.57;;;;;;;-145.50;100.00;65435.88;5057199;28;20138;-72
2023/10/06 02:25:20;;;;;;;11.27;5.87;;;;;;;-145.50;100.00;65435.88;5058129;28;20079;-72
2023/10/06 02:27:50;;;;;;;12.98;5.75;;;;;;;-145.50;100.00;65435.88;5059078;28;20048;-71
2023/10/06 02:30:19;;;;;;;13.13;5.97;;;;;;;-145.50;100.00;65435.88;5040387;28;20045;-72
2023/10/06 02:32:46;;;;;;;16.60;5.25;;;;;;;-145.50;100.00;65435.88;5065279;28;20109;-72
2023/10/06 02:35:13;;;;;;;9.65;5.43;;;;;;;-145.50;100.00;65435.88;5056971;28;20106;-71
2023/10/06 02:37:40;;;;;;;16.60;5.50;;;;;;;-145.50;100.00;65435.88;5053697;28;20049;-71
2023/10/06 02:40:13;;;;;;;10.75;5.15;;;;;;;-145.50;100.00;65435.88;5054558;28;20049;-72
2023/10/06 02:42:52;;;;;;;9.70;4.88;;;;;;;-145.50;100.00;65435.88;5047447;28;20158;-71
2023/10/06 02:45:20;;;;;;;14.15;4.88;;;;;;;-145.50;100.00;65435.88;5059386;28;20052;-71
2023/10/06 02:47:48;;;;;;;10.55;4.93;;;;;;;-145.50;100.00;65435.88;5056704;28;20053;-71
2023/10/06 02:50:20;;;;;;;15.63;4.95;;;;;;;-145.50;100.00;65435.88;5061525;28;20072;-71
2023/10/06 02:52:47;;;;;;;16.05;5.57;;;;;;;-145.50;100.00;65435.88;5048790;28;20137;-71
2023/10/06 02:55:20;;;;;;;14.38;5.13;;;;;;;-145.50;100.00;65435.88;5054637;28;20048;-71
2023/10/06 02:57:52;;;;;;;10.93;4.93;;;;;;;-145.50;100.00;65435.88;5035376;28;20079;-71
2023/10/06 03:03:02;;;;;;;12.40;4.53;;;;;;;-145.50;100.00;65435.88;5056423;28;20552;-71
2023/10/06 03:05:33;;;;;;;11.75;4.65;;;;;;;-145.50;100.00;65435.88;5046248;28;20505;-71
2023/10/06 03:08:09;;;;;;;12.80;5.75;;;;;;;-145.50;100.00;65435.88;5045718;28;20102;-71
2023/10/06 03:10:45;;;;;;;18.80;5.38;;;;;;;-145.50;100.00;65435.88;5035104;28;20143;-71
2023/10/06 03:13:16;;;;;;;11.20;5.10;;;;;;;-145.50;100.00;65435.88;5046027;28;20056;-71
2023/10/06 03:15:46;;;;;;;11.82;5.25;;;;;;;-145.50;100.00;65435.88;5046425;28;20057;-71
2023/10/06 03:18:15;;;;;;;21.15;5.15;;;;;;;-145.50;100.00;65435.88;5060163;28;20036;-71
2023/10/06 03:20:53;;;;;;;;;;;;;;;-145.50;100.00;65435.88;5059609;28;20044;-72
2023/10/06 03:25:54;;;;;;;14.80;4.97;;;;;;;-145.50;100.00;65435.88;5056825;28;20152;-71
2023/10/06 03:28:26;;;;;;;15.20;5.22;;;;;;;-145.50;100.00;65435.88;5047888;28;20091;-71
2023/10/06 03:30:52;;;;;;;10.27;4.95;;;;;;;-145.50;100.00;65435.88;5050374;28;20040;-72
2023/10/06 03:33:19;;;;;;;11.95;5.43;;;;;;;-145.50;100.00;65435.88;5057942;28;20512;-72
2023/10/06 03:35:47;;;;;;;12.25;5.53;;;;;;;-145.50;100.00;65435.88;5059721;28;20076;-72
2023/10/06 03:46:07;;;;;;;10.98;5.03;;;;;;;-145.50;100.00;65435.88;5047263;28;20048;-71
2023/10/06 03:48:35;;;;;;;10.55;4.53;;;;;;;-145.50;100.00;65435.88;5059109;28;20044;-71
2023/10/06 03:51:02;;;;;;;13.05;5.50;;;;;;;-145.50;100.00;65435.88;5041716;28;20045;-71
2023/10/06 03:53:29;;;;;;;13.10;5.25;;;;;;;-145.50;100.00;65435.88;5039985;28;20514;-72
2023/10/06 03:55:57;;;;;;;15.35;5.07;;;;;;;-145.50;100.00;65435.88;5051984;28;20590;-72
2023/10/06 03:58:31;;;;;;;9.25;5.05;;;;;;;-145.50;100.00;65435.88;5057126;28;20047;-73
2023/10/06 04:01:07;;;;;;;11.25;4.28;;;;;;;-145.50;100.00;65435.88;5062538;28;20048;-72
2023/10/06 04:03:33;;;;;;;12.23;5.53;;;;;;;-145.50;100.00;65435.88;5042925;28;20083;-72
2023/10/06 04:06:03;;;;;;;14.00;5.43;;;;;;;-145.50;100.00;65435.88;5054360;28;20852;-71
2023/10/06 04:08:30;;;;;;;8.63;4.70;;;;;;;-145.50;100.00;65435.88;5050832;28;20052;-71
2023/10/06 04:10:59;;;;;;;13.82;5.18;;;;;;;-145.50;100.00;65435.88;5054515;28;20660;-71
2023/10/06 04:13:26;;;;;;;14.02;5.47;;;;;;;-145.50;100.00;65435.88;5042743;28;20048;-71
2023/10/06 04:15:53;;;;;;;13.65;6.20;;;;;;;-145.50;100.00;65435.88;5050572;28;20061;-71
2023/10/06 04:18:22;;;;;;;13.80;4.93;;;;;;;-145.50;100.00;65435.88;5056440;28;20052;-72
2023/10/06 04:20:52;;;;;;;13.90;4.65;;;;;;;-145.50;100.00;65435.88;5045992;28;20481;-71
2023/10/06 04:23:19;;;;;;;10.77;4.90;;;;;;;-145.50;100.00;65435.88;5062747;28;20060;-71
2023/10/06 04:25:46;;;;;;;13.48;4.75;;;;;;;-145.50;100.00;65435.88;5052960;28;20135;-71
2023/10/06 04:28:14;;;;;;;13.83;5.00;;;;;;;-145.50;100.00;65435.88;5051440;28;20044;-71
2023/10/06 04:30:45;;;;;;;12.00;5.03;;;;;;;-145.50;100.00;65435.88;5055079;28;20055;-72
2023/10/06 04:33:14;;;;;;;11.48;5.32;;;;;;;-145.50;100.00;65435.88;5048881;28;20622;-72
2023/10/06 04:35:47;;;;;;;;;;;;;;;-145.50;100.00;65435.88;5052588;28;20078;-71
2023/10/06 04:38:14;;;;;;;7.63;4.53;;;;;;;-145.50;100.00;65435.88;5040634;28;20288;-71
2023/10/06 04:40:41;;;;;;;11.07;4.60;;;;;;;-145.50;100.00;65435.88;5048625;28;20057;-71
2023/10/06 04:43:08;;;;;;;10.35;4.90;;;;;;;-145.50;100.00;65435.88;5055775;28;20064;-72
2023/10/06 04:45:38;;;;;;;12.23;4.97;;;;;;;-145.50;100.00;65435.88;5056926;28;20056;-71
2023/10/06 04:48:07;;;;;;;15.57;5.13;;;;;;;-145.50;100.00;65435.88;5046547;28;20336;-71
2023/10/06 04:50:35;;;;;;;13.07;5.13;;;;;;;-145.50;100.00;65435.88;5054035;28;20489;-71
2023/10/06 04:53:05;;;;;;;17.35;5.00;;;;;;;-145.50;100.00;65435.88;5064964;28;20567;-70
2023/10/06 04:55:37;;;;;;;15.45;5.80;;;;;;;-145.50;100.00;65435.88;5056459;28;20099;-70
2023/10/06 04:58:14;;;;;;;13.85;4.43;;;;;;;-145.50;100.00;65435.88;5047953;28;20096;-71
2023/10/06 05:00:41;;;;;;;9.73;4.38;;;;;;;-145.50;100.00;65435.88;5052703;28;20273;-71
2023/10/06 05:03:10;;;;;;;9.77;4.85;;;;;;;-145.50;100.00;65435.88;5053809;28;20083;-71
2023/10/06 05:05:38;;;;;;;12.40;5.55;;;;;;;-145.50;100.00;65435.88;5048975;28;20048;-71
2023/10/06 05:08:09;;;;;;;8.80;5.28;;;;;;;-145.50;100.00;65435.88;5063711;28;20045;-71
2023/10/06 05:10:37;;;;;;;15.98;5.13;;;;;;;-145.50;100.00;65435.88;5049892;28;20063;-72
2023/10/06 05:13:10;;;;;;;11.57;6.15;;;;;;;-145.50;100.00;65435.88;5049249;28;20488;-71
2023/10/06 05:15:40;;;;;;;11.32;4.97;;;;;;;-145.50;100.00;65435.88;5051008;28;20583;-71
2023/10/06 05:18:07;;;;;;;12.70;4.78;;;;;;;-145.50;100.00;65435.88;5054448;28;20511;-71
2023/10/06 05:20:35;;;;;;;12.38;5.10;;;;;;;-145.50;100.00;65435.88;5064220;28;20071;-71
2023/10/06 05:23:07;;;;;;;10.63;4.72;;;;;;;-145.50;100.00;65435.88;5057617;28;20067;-72
2023/10/06 05:25:34;;;;;;;17.60;5.35;;;;;;;-145.50;100.00;65435.88;5064450;28;20075;-71
2023/10/06 05:28:00;;;;;;;11.00;4.45;;;;;;;-145.50;100.00;65435.88;5057515;28;20040;-71
2023/10/06 05:30:27;;;;;;;11.85;5.13;;;;;;;-145.50;100.00;65435.88;5060112;28;20463;-71
2023/10/06 05:32:58;;;;;;;12.10;5.50;;;;;;;-145.50;100.00;65435.88;5064683;28;20051;-71
2023/10/06 05:35:25;;;;;;;8.20;4.55;;;;;;;-145.50;100.00;65435.88;5049298;28;20052;-71
2023/10/06 05:37:53;;;;;;;12.40;5.40;;;;;;;-145.50;100.00;65435.88;5064261;28;20052;-72
2023/10/06 05:40:20;;;;;;;12.38;6.03;;;;;;;-145.50;100.00;65435.88;5038422;28;20285;-71
2023/10/06 05:42:49;;;;;;;13.67;6.60;;;;;;;-145.50;100.00;65435.88;5048970;28;20097;-71
2023/10/06 05:45:18;;;;;;;18.83;8.38;;;;;;;-145.50;100.00;65435.88;5056919;28;20052;-71
2023/10/06 05:47:46;;;;;;;19.52;8.85;;;;;;;-145.50;100.00;65435.88;5061576;28;20044;-72
2023/10/06 05:50:18;;;;;;;20.95;9.85;;;;;;;-145.50;100.00;65435.88;5057537;28;20062;-71
2023/10/06 05:52:51;;;;;;;16.70;8.43;;;;;;;-145.50;100.00;65435.88;5047216;28;20053;-72
2023/10/06 05:55:19;;;;;;;17.10;7.45;;;;;;;-145.50;100.00;65435.88;5047640;28;20052;-71
2023/10/06 05:57:55;;;;;;;13.23;7.10;;;;;;;-145.50;100.00;65435.88;5055499;28;20828;-71
2023/10/06 06:00:26;;;;;;;15.82;6.45;;;;;;;-145.50;100.00;65435.88;5056073;28;20092;-72
2023/10/06 06:02:54;;;;;;;11.93;5.32;;;;;;;-145.50;100.00;65435.88;5039965;28;20501;-72
2023/10/06 06:05:21;;;;;;;16.50;5.50;;;;;;;-145.50;100.00;65435.88;5049879;28;20056;-71
2023/10/06 06:07:51;;;;;;;12.35;4.82;;;;;;;-145.50;100.00;65435.88;5056051;28;20189;-71
2023/10/06 06:10:19;;;;;;;9.30;4.22;;;;;;;-145.50;100.00;65435.88;5049474;28;20140;-71
2023/10/06 06:12:47;;;;;;;10.00;5.13;;;;;;;-145.50;100.00;65435.88;5064273;28;20048;-71
2023/10/06 06:15:14;;;;;;;;;;;;;;;-145.50;100.00;65435.88;5049056;28;20067;-71
2023/10/06 06:17:41;;;;;;;13.68;4.70;;;;;;;-145.50;100.00;65435.88;5045302;28;19947;-72
2023/10/06 06:20:14;;;;;;;13.63;4.57;;;;;;;-145.50;100.00;65435.88;5046930;28;20048;-71
2023/10/06 06:22:55;;;;;;;8.68;3.85;;;;;;;-145.50;100.00;65435.88;5055362;28;20055;-71
2023/10/06 06:25:40;;;;;;;10.88;4.57;;;;;;;-145.50;100.00;65435.88;5058612;28;20120;-72
2023/10/06 06:28:08;;;;;;;12.93;3.90;;;;;;;-145.50;100.00;65435.88;5056584;28;20036;-72
2023/10/06 06:30:37;;;;;;;11.70;3.95;;;;;;;-145.50;100.00;65435.88;5046423;28;20057;-72
2023/10/06 06:33:04;;;;;;;9.90;3.50;;;;;;;-145.50;100.00;65435.88;5045008;28;20421;-73
2023/10/06 06:35:32;;;;;;;10.73;4.38;;;;;;;-145.50;100.00;65435.88;5051331;28;20521;-72
2023/10/06 06:38:04;;;;;;;8.43;3.63;;;;;;;-145.50;100.00;65435.88;5059453;28;20136;-72
2023/10/06 06:40:32;;;;;;;14.75;4.78;;;;;;;-145.50;100.00;65435.88;5058292;28;20419;-72
2023/10/06 06:43:00;;;;;;;8.65;4.18;;;;;;;-145.50;100.00;65435.88;5058657;28;20088;-72
2023/10/06 06:45:31;;;;;;;8.20;3.90;;;;;;;-145.50;100.00;65435.88;5048912;28;20041;-72
2023/10/06 06:48:02;;;;;;;8.90;3.50;;;;;;;-145.50;100.00;65435.88;5052380;28;20737;-72
2023/10/06 06:50:29;;;;;;;7.35;4.03;;;;;;;-145.50;100.00;65435.88;5045896;28;20601;-72
2023/10/06 06:52:56;;;;;;;11.70;4.43;;;;;;;-145.50;100.00;65435.88;5057042;28;20051;-72
2023/10/06 06:55:23;;;;;;;6.85;3.75;;;;;;;-145.50;100.00;65435.88;5051409;28;20052;-72
2023/10/06 06:57:50;;;;;;;13.98;5.70;;;;;;;-145.50;100.00;65435.88;5063343;28;20102;-72
2023/10/06 07:00:23;;;;;;;12.10;4.43;;;;;;;-145.50;100.00;65435.88;5043326;28;20529;-72
2023/10/06 07:02:52;;;;;;;13.65;4.80;;;;;;;-145.50;100.00;65435.88;5058636;28;20079;-72
2023/10/06 07:05:21;;;;;;;12.38;5.03;;;;;;;-145.50;100.00;65435.88;5048349;28;20121;-72
2023/10/06 07:07:51;;;;;;;14.45;4.35;;;;;;;-145.50;100.00;65435.88;5055903;28;20097;-73
2023/10/06 07:10:22;;;;;;;13.10;3.85;;;;;;;-145.50;100.00;65435.88;5061163;28;20135;-73
2023/10/06 07:12:51;;;;;;;11.95;4.30;;;;;;;-145.50;100.00;65435.88;5044521;28;20067;-72
2023/10/06 07:15:19;;;;;;;10.60;4.18;;;;;;;-145.50;100.00;65435.88;5051650;28;20061;-73
2023/10/06 07:17:48;;;;;;;8.18;3.58;;;;;;;-145.50;100.00;65435.88;5046055;28;20528;-72
2023/10/06 07:20:27;;;;;;;12.40;5.05;;;;;;;-145.50;100.00;65435.88;5043760;28;20049;-72
2023/10/06 07:23:00;;;;;;;11.68;3.72;;;;;;;-145.50;100.00;65435.88;5052932;28;20052;-72
2023/10/06 07:25:28;;;;;;;8.10;3.72;;;;;;;-145.50;100.00;65435.88;5045074;28;20057;-72
2023/10/06 07:27:57;;;;;;;9.38;4.07;;;;;;;-145.50;100.00;65435.88;5051066;28;20045;-72
2023/10/06 07:30:27;;;;;;;10.57;4.45;;;;;;;-145.50;100.00;65435.88;5037905;28;20053;-72
2023/10/06 07:32:54;;;;;;;11.32;4.15;;;;;;;-145.50;100.00;65435.88;5057103;28;20040;-72
2023/10/06 07:35:27;;;;;;;11.90;4.53;;;;;;;-145.50;100.00;65435.88;5055858;28;20055;-72
2023/10/06 07:37:53;;;;;;;12.38;4.43;;;;;;;-145.50;100.00;65435.88;5058238;28;20098;-72
2023/10/06 07:40:21;;;;;;;12.38;3.95;;;;;;;-145.50;100.00;65435.88;5054367;28;20084;-72
2023/10/06 07:42:51;;;;;;;10.03;4.60;;;;;;;-145.50;100.00;65435.88;5054736;28;20049;-73
2023/10/06 07:45:20;;;;;;;11.20;4.20;;;;;;;-145.50;100.00;65435.88;5043206;28;20648;-71
2023/10/06 07:47:50;;;;;;;14.02;4.32;;;;;;;-145.50;100.00;65435.88;5056263;28;20045;-71
2023/10/06 07:50:17;;;;;;;11.52;4.50;;;;;;;-145.50;100.00;65435.88;5062882;28;20130;-72
2023/10/06 07:52:49;;;;;;;12.55;4.10;;;;;;;-145.50;100.00;65435.88;5053931;28;20053;-72
2023/10/06 07:55:19;;;;;;;9.05;4.10;;;;;;;-145.50;100.00;65435.88;5048831;28;20056;-71
2023/10/06 07:57:45;;;;;;;10.38;3.85;;;;;;;-145.50;100.00;65435.88;5048391;28;20055;-72
2023/10/06 08:00:24;;;;;;;9.73;4.18;;;;;;;-145.50;100.00;65435.88;5037074;28;20245;-72
2023/10/06 08:02:50;;;;;;;12.80;4.78;;;;;;;-145.50;100.00;65435.88;5060532;28;20052;-72
2023/10/06 08:05:19;;;;;;;10.55;4.57;;;;;;;-145.50;100.00;65435.88;5051647;28;20425;-72
2023/10/06 08:07:45;;;;;;;9.32;4.40;;;;;;;-145.50;100.00;65435.88;5059204;28;20052;-71
2023/10/06 08:10:14;;;;;;;9.02;4.15;;;;;;;-145.50;100.00;65435.88;5044061;28;20048;-71
2023/10/06 08:12:49;;;;;;;14.55;4.97;;;;;;;-145.50;100.00;65435.88;5051240;28;20052;-72
2023/10/06 08:15:17;;;;;;;10.15;4.30;;;;;;;-145.50;100.00;65435.88;5038832;28;20045;-73
2023/10/06 08:17:53;;;;;;;8.98;3.95;;;;;;;-145.50;100.00;65435.88;5039938;28;20102;-72
2023/10/06 08:20:20;;;;;;;10.63;4.10;;;;;;;-145.50;100.00;65435.88;5063843;28;20052;-72
2023/10/06 08:22:49;;;;;;;14.47;4.53;;;;;;;-145.50;100.00;65435.88;5058237;28;20595;-72
2023/10/06 08:25:17;;;;;;;11.95;4.72;;;;;;;-145.50;100.00;65435.88;5043967;28;20064;-72
2023/10/06 08:27:46;;;;;;;13.40;3.95;;;;;;;-145.50;100.00;65435.88;5053190;28;20060;-71
2023/10/06 08:30:21;;;;;;;17.58;4.10;;;;;;;-145.50;100.00;65435.88;5063070;28;20525;-71
2023/10/06 08:32:54;;;;;;;13.35;4.43;;;;;;;-145.50;100.00;65435.88;5061262;28;20048;-71
2023/10/06 08:35:21;;;;;;;11.88;3.92;;;;;;;-145.50;100.00;65435.88;5040370;28;20049;-72
2023/10/06 08:37:51;;;;;;;10.75;4.07;;;;;;;-145.50;100.00;65435.88;5046765;28;20103;-72
2023/10/06 08:40:22;;;;;;;7.50;3.97;;;;;;;-145.50;100.00;65435.88;5035152;28;20064;-71
2023/10/06 08:42:54;;;;;;;13.90;4.80;;;;;;;-145.50;100.00;65435.88;5057373;28;20110;-71
2023/10/06 08:45:25;;;;;;;11.48;4.10;;;;;;;-145.50;100.00;65435.88;5052152;28;20064;-72
2023/10/06 08:47:59;;;;;;;12.98;4.28;;;;;;;-145.50;100.00;65435.88;5063674;28;20109;-72
2023/10/06 08:50:32;;;;;;;11.82;4.22;;;;;;;-145.50;100.00;65435.88;5057497;28;20444;-72
2023/10/06 08:53:09;;;;;;;13.75;4.40;;;;;;;-145.50;100.00;65435.88;5044844;28;20048;-71
2023/10/06 08:55:38;;;;;;;12.13;4.47;;;;;;;-145.50;100.00;65435.88;5040968;28;20124;-71
2023/10/06 08:58:07;;;;;;;8.63;3.92;;;;;;;-145.50;100.00;65435.88;5049628;28;20045;-72
2023/10/06 09:00:36;;;;;;;9.85;3.53;;;;;;;-145.50;100.00;65435.88;5050032;28;20469;-72
2023/10/06 09:03:07;;;;;;;12.13;4.28;;;;;;;-145.50;100.00;65435.88;5045430;28;20055;-72
2023/10/06 09:05:37;;;;;;;12.63;4.15;;;;;;;-145.50;100.00;65435.88;5055272;28;20091;-71
2023/10/06 09:08:08;;;;;;;13.30;4.10;;;;;;;-145.50;100.00;65435.88;5047136;28;20044;-73
2023/10/06 09:10:37;;;;;;;12.88;3.97;;;;;;;-145.50;100.00;65435.88;5049838;28;20063;-72
2023/10/06 09:13:11;;;;;;;;;;;;;;;-145.50;100.00;65435.88;5056620;28;20048;-72
2023/10/06 09:15:43;;;;;;;14.98;4.25;;;;;;;-145.50;100.00;65435.88;5051132;28;19936;-72
2023/10/06 09:18:27;;;;;;;11.43;4.68;;;;;;;-145.50;100.00;65435.88;5062718;28;20058;-72
2023/10/06 09:20:56;;;;;;;11.30;4.45;;;;;;;-145.50;100.00;65435.88;5049559;28;20194;-71
2023/10/06 09:23:42;;;;;;;9.60;4.13;;;;;;;-145.50;100.00;65435.88;5048067;28;20049;-72
2023/10/06 09:26:15;;;;;;;12.77;4.60;;;;;;;-145.50;100.00;65435.88;5050056;28;20504;-72
2023/10/06 09:28:53;;;;;;;10.57;4.50;;;;;;;-145.50;100.00;65435.88;5060913;28;20060;-71
2023/10/06 09:31:44;;;;;;;16.40;4.85;;;;;;;-145.50;100.00;65435.88;5044710;28;20205;-72
2023/10/06 09:34:11;;;;;;;13.40;4.30;;;;;;;-145.50;100.00;65435.88;5051586;28;20052;-73
2023/10/06 09:36:42;;;;;;;9.52;3.80;;;;;;;-145.50;100.00;65435.88;5060145;28;20056;-72
2023/10/06 09:39:15;;;;;;;16.23;5.03;;;;;;;-145.50;100.00;65435.88;5043364;28;20568;-72
2023/10/06 09:41:42;;;;;;;9.88;3.95;;;;;;;-145.50;100.00;65435.88;5058115;28;20059;-72
2023/10/06 09:44:11;;;;;;;12.65;4.13;;;;;;;-145.50;100.00;65435.88;5062122;28;20052;-72
2023/10/06 09:46:43;;;;;;;10.13;3.65;;;;;;;-145.50;100.00;65435.88;5061798;28;20332;-73
2023/10/06 09:49:15;;;;;;;9.95;4.10;;;;;;;-145.50;100.00;65435.88;5057157;28;20421;-72
2023/10/06 09:51:43;;;;;;;8.02;3.60;;;;;;;-145.50;100.00;65435.88;5057881;28;20117;-72
2023/10/06 09:54:12;;;;;;;10.60;3.95;;;;;;;-145.50;100.00;65435.88;5063151;28;20044;-72
2023/10/06 09:56:40;;;;;;;9.90;3.95;;;;;;;-145.50;100.00;65435.88;5047921;28;20529;-72
2023/10/06 09:59:13;;;;;;;12.25;3.97;;;;;;;-145.50;100.00;65435.88;5059784;28;20045;-73
2023/10/06 10:01:47;;;;;;;15.77;4.68;;;;;;;-145.50;100.00;65435.88;5047491;28;20800;-72
2023/10/06 10:04:14;;;;;;;10.23;3.83;;;;;;;-145.50;100.00;65435.88;5059734;28;20060;-72
2023/10/06 10:06:44;;;;;;;10.75;3.70;;;;;;;-145.50;100.00;65435.88;5055177;28;20049;-72
2023/10/06 10:09:18;;;;;;;11.10;3.58;;;;;;;-145.50;100.00;65435.88;5039954;28;20049;-72
2023/10/06 10:12:23;;;;;;;8.93;4.20;;;;;;;-145.50;100.00;65435.88;5052174;28;20045;-72
2023/10/06 10:14:59;;;;;;;8.85;3.65;;;;;;;-145.50;100.00;65435.88;5038416;28;20131;-72
2023/10/06 10:17:43;;;;;;;11.23;3.22;;;;;;;-145.50;100.00;65435.88;5050316;28;20052;-72
2023/10/06 10:20:12;;;;;;;9.95;4.00;;;;;;;-145.50;100.00;65435.88;5048690;28;20099;-73
2023/10/06 10:22:42;;;;;;;10.55;3.42;;;;;;;-145.50;100.00;65435.88;5054905;28;20063;-72
2023/10/06 10:25:13;;;;;;;13.30;3.90;;;;;;;-145.50;100.00;65435.88;5046217;28;20086;-72
2023/10/06 10:28:27;;;;;;;11.40;4.55;;;;;;;-145.50;100.00;65435.88;5055782;28;20060;-72
2023/10/06 10:30:59;;;;;;;10.00;4.18;;;;;;;-145.50;100.00;65435.88;5049846;28;20623;-73
2023/10/06 10:33:29;;;;;;;7.85;3.40;;;;;;;-145.50;100.00;65435.88;5056171;28;20512;-71
2023/10/06 10:36:17;;;;;;;11.23;4.28;;;;;;;-145.50;100.00;65435.88;5050879;28;20087;-72
2023/10/06 10:38:45;;;;;;;13.52;3.92;;;;;;;-145.50;100.00;65435.88;5054085;28;20056;-71
2023/10/06 10:41:12;;;;;;;12.77;3.47;;;;;;;-145.50;100.00;65435.88;5054824;28;20060;-72
2023/10/06 10:43:45;;;;;;;12.90;4.00;;;;;;;-145.50;100.00;65435.88;5041883;28;20080;-72
2023/10/06 10:46:15;;;;;;;11.52;3.72;;;;;;;-145.50;100.00;65435.88;5059394;28;20040;-71
2023/10/06 10:48:47;;;;;;;12.52;3.90;;;;;;;-145.50;100.00;65435.88;5057758;28;20469;-71
2023/10/06 10:51:15;;;;;;;14.23;3.35;;;;;;;-145.50;100.00;65435.88;5054135;28;20506;-72
2023/10/06 10:53:43;;;;;;;9.20;3.20;;;;;;;-145.50;100.00;65435.88;5054520;28;20405;-71
2023/10/06 10:56:34;;;;;;;11.07;3.20;;;;;;;-145.50;100.00;65435.88;5047854;28;20052;-72
2023/10/06 10:59:02;;;;;;;11.50;3.60;;;;;;;-145.50;100.00;65435.88;5034275;28;20052;-72
2023/10/06 11:01:38;;;;;;;10.67;3.20;;;;;;;-145.50;100.00;65435.88;5046915;28;20051;-72
2023/10/06 11:04:35;;;;;;;13.00;4.10;;;;;;;-145.50;100.00;65435.88;5065305;28;20060;-71
2023/10/06 11:07:10;;;;;;;11.73;3.78;;;;;;;-145.50;100.00;65435.88;5050019;28;20472;-71
2023/10/06 11:09:41;;;;;;;8.98;3.13;;;;;;;-145.50;100.00;65435.88;5061469;28;20158;-72
2023/10/06 11:12:17;;;;;;;8.40;3.58;;;;;;;-145.50;100.00;65435.88;5046105;28;20040;-72
2023/10/06 11:14:49;;;;;;;7.07;2.92;;;;;;;-145.50;100.00;65435.88;5044761;28;20655;-72
2023/10/06 11:17:20;;;;;;;15.52;3.38;;;;;;;-145.50;100.00;65435.88;5052732;28;20048;-71
2023/10/06 11:20:13;;;;;;;10.02;3.25;;;;;;;-145.50;100.00;65435.88;5061409;28;20040;-72
2023/10/06 11:22:52;;;;;;;9.32;2.95;;;;;;;-145.50;100.00;65435.88;5057898;28;20067;-71
2023/10/06 11:25:26;;;;;;;7.75;3.08;;;;;;;-145.50;100.00;65435.88;5035071;28;20061;-71
2023/10/06 11:28:05;;;;;;;6.45;2.70;;;;;;;-145.50;100.00;65435.88;5059269;28;20044;-72
2023/10/06 11:30:33;;;;;;;6.90;2.88;;;;;;;-145.50;100.00;65435.88;5043132;28;20056;-70
2023/10/06 11:33:02;;;;;;;8.48;3.35;;;;;;;-145.50;100.00;65435.88;5051114;28;20117;-71
2023/10/06 11:35:31;;;;;;;7.97;3.33;;;;;;;-145.50;100.00;65435.88;5052018;28;20067;-70
2023/10/06 11:37:57;;;;;;;11.23;3.30;;;;;;;-145.50;100.00;65435.88;5043834;28;20633;-70
2023/10/06 11:40:27;;;;;;;6.53;2.67;;;;;;;-145.50;100.00;65435.88;5038710;28;20532;-70
2023/10/06 11:42:54;;;;;;;9.30;3.28;;;;;;;-145.50;100.00;65435.88;5049222;28;20072;-70